Time;durP1;ratioP1;P1;durP2;ratioP2;P2;SDS_P1;SDS_P2;PMS_P1;PMS_P2;Temp;Humidity;BMP_temperature;BMP_pressure;BME280_temperature;BME280_humidity;BME280_pressure;Samples;Min_cycle;Max_cycle;Signal;HPM_P1;HPM_P2
2022/03/12 00:01:24;;;;;;;21.97;12.50;;;1.00;99.90;;;;;;4976479;28;20435;-50
2022/03/12 00:03:51;;;;;;;18.57;11.57;;;1.00;99.90;;;;;;4972382;28;20481;-49
2022/03/12 00:06:18;;;;;;;21.00;11.73;;;1.00;99.90;;;;;;4972575;28;20473;-49
2022/03/12 00:08:47;;;;;;;15.80;11.20;;;1.00;99.90;;;;;;4974794;28;20552;-50
2022/03/12 00:11:15;;;;;;;17.60;11.60;;;0.90;99.90;;;;;;4971211;28;20495;-49
2022/03/12 00:13:42;;;;;;;21.17;12.27;;;0.90;99.90;;;;;;4970951;28;20528;-50
2022/03/12 00:16:13;;;;;;;20.53;12.23;;;0.90;99.90;;;;;;4976692;28;20913;-50
2022/03/12 00:18:42;;;;;;;18.60;10.70;;;0.90;99.90;;;;;;4962653;28;20466;-50
2022/03/12 00:21:08;;;;;;;20.80;12.60;;;0.90;99.90;;;;;;4971976;28;20469;-49
2022/03/12 00:23:35;;;;;;;19.10;12.73;;;0.90;99.90;;;;;;4973168;28;20501;-50
2022/03/12 00:26:04;;;;;;;15.90;11.70;;;0.80;99.90;;;;;;4971597;28;20575;-49
2022/03/12 00:28:30;;;;;;;16.47;11.40;;;0.70;99.90;;;;;;4970417;28;20561;-49
2022/03/12 00:30:57;;;;;;;18.33;11.57;;;0.80;99.90;;;;;;4972508;28;20924;-49
2022/03/12 00:33:25;;;;;;;17.63;11.20;;;0.80;99.90;;;;;;4969921;28;20532;-49
2022/03/12 00:35:54;;;;;;;18.70;12.43;;;0.80;99.90;;;;;;4966439;28;20512;-49
2022/03/12 00:38:22;;;;;;;17.50;12.00;;;0.70;99.90;;;;;;4970547;28;21053;-49
2022/03/12 00:40:49;;;;;;;19.07;12.90;;;0.70;99.90;;;;;;4979167;28;20441;-50
2022/03/12 00:43:18;;;;;;;19.27;12.10;;;0.70;99.90;;;;;;4970800;28;20994;-49
2022/03/12 00:45:47;;;;;;;15.37;11.10;;;0.70;99.90;;;;;;4972813;28;20476;-49
2022/03/12 00:48:15;;;;;;;20.50;12.53;;;0.60;99.90;;;;;;4980767;28;20573;-49
2022/03/12 00:50:42;;;;;;;20.03;12.17;;;0.60;99.90;;;;;;4972243;28;20515;-49
2022/03/12 00:53:08;;;;;;;16.13;11.00;;;0.60;99.90;;;;;;4972005;28;20549;-49
2022/03/12 00:55:35;;;;;;;15.63;11.80;;;0.50;99.90;;;;;;4972448;28;20556;-50
2022/03/12 00:58:02;;;;;;;19.90;11.97;;;0.50;99.90;;;;;;4972048;28;20548;-49
2022/03/12 01:00:31;;;;;;;21.60;12.37;;;0.40;99.90;;;;;;4970440;28;20545;-50
2022/03/12 01:02:57;;;;;;;17.07;12.20;;;0.40;99.90;;;;;;4972191;28;20458;-49
2022/03/12 01:05:40;;;;;;;21.43;12.73;;;0.40;99.90;;;;;;4972661;28;20584;-49
2022/03/12 01:08:08;;;;;;;18.50;11.33;;;0.40;99.90;;;;;;4972609;28;20457;-49
2022/03/12 01:10:35;;;;;;;18.67;11.33;;;0.40;99.90;;;;;;4972278;28;20916;-49
2022/03/12 01:13:01;;;;;;;23.10;11.90;;;0.40;99.90;;;;;;4972461;28;20537;-50
2022/03/12 01:15:29;;;;;;;18.00;12.40;;;0.30;99.90;;;;;;4970370;28;20920;-50
2022/03/12 01:17:56;;;;;;;19.53;12.33;;;0.40;99.90;;;;;;4972950;28;20540;-49
2022/03/12 01:20:23;;;;;;;18.30;12.30;;;0.40;99.90;;;;;;4971056;28;20540;-49
2022/03/12 01:22:49;;;;;;;19.70;11.53;;;0.30;99.90;;;;;;4973852;28;20453;-49
2022/03/12 01:25:16;;;;;;;21.30;12.70;;;0.30;99.90;;;;;;4971257;28;20858;-50
2022/03/12 01:27:42;;;;;;;21.17;11.93;;;0.30;99.90;;;;;;4961378;28;20898;-49
2022/03/12 01:30:10;;;;;;;24.50;12.53;;;0.20;99.90;;;;;;4970015;28;20545;-49
2022/03/12 01:32:38;;;;;;;22.00;12.20;;;0.30;99.90;;;;;;4971036;28;20508;-50
2022/03/12 01:35:07;;;;;;;24.93;13.57;;;0.20;99.90;;;;;;4972279;28;20564;-49
2022/03/12 01:37:34;;;;;;;22.93;12.50;;;0.20;99.90;;;;;;4971774;28;20565;-50
2022/03/12 01:40:00;;;;;;;20.77;12.63;;;0.20;99.90;;;;;;4972000;28;20561;-49
2022/03/12 01:42:27;;;;;;;20.33;12.17;;;0.20;99.90;;;;;;4976183;28;20563;-50
2022/03/12 01:44:54;;;;;;;18.50;12.80;;;0.20;99.90;;;;;;4968194;28;21170;-49
2022/03/12 01:47:22;;;;;;;20.13;13.60;;;0.10;99.90;;;;;;4972021;28;20449;-49
2022/03/12 01:49:52;;;;;;;17.47;11.30;;;0.00;99.90;;;;;;4976040;28;20462;-50
2022/03/12 01:52:20;;;;;;;21.90;12.40;;;0.00;99.90;;;;;;4976449;28;20485;-50
2022/03/12 01:54:47;;;;;;;22.17;12.97;;;0.00;99.90;;;;;;4971755;28;20576;-49
2022/03/12 01:57:13;;;;;;;17.13;11.73;;;0.00;99.90;;;;;;4975343;28;20553;-49
2022/03/12 01:59:40;;;;;;;17.57;11.23;;;0.00;99.90;;;;;;4975070;28;20617;-49
2022/03/12 02:02:09;;;;;;;19.67;13.13;;;0.00;99.90;;;;;;4986809;28;20464;-49
2022/03/12 02:04:37;;;;;;;18.63;11.90;;;0.00;99.90;;;;;;4980465;28;20486;-50
2022/03/12 02:07:06;;;;;;;20.77;12.30;;;0.00;99.90;;;;;;4975814;28;20918;-49
2022/03/12 02:09:32;;;;;;;21.30;12.97;;;0.00;99.90;;;;;;4977651;28;20524;-49
2022/03/12 02:11:59;;;;;;;23.90;12.43;;;0.00;99.90;;;;;;4956344;28;20576;-49
2022/03/12 02:14:27;;;;;;;25.47;14.23;;;0.00;99.90;;;;;;4969545;28;20577;-50
2022/03/12 02:16:56;;;;;;;18.87;12.80;;;0.00;99.90;;;;;;4967033;28;20557;-49
2022/03/12 02:19:26;;;;;;;18.27;12.20;;;0.00;99.90;;;;;;4978550;28;20966;-48
2022/03/12 02:21:55;;;;;;;21.63;13.77;;;0.00;99.90;;;;;;4973522;28;20493;-50
2022/03/12 02:24:25;;;;;;;24.73;13.47;;;0.00;99.90;;;;;;4975147;28;20995;-49
2022/03/12 02:26:53;;;;;;;19.63;13.33;;;0.00;99.90;;;;;;4975455;28;20536;-49
2022/03/12 02:29:22;;;;;;;21.80;13.53;;;0.00;99.90;;;;;;4977714;28;20966;-49
2022/03/12 02:31:50;;;;;;;22.47;13.30;;;0.00;99.90;;;;;;4977064;28;21011;-49
2022/03/12 02:34:21;;;;;;;20.33;13.00;;;-0.10;99.90;;;;;;4972761;28;20513;-49
2022/03/12 02:36:49;;;;;;;18.97;13.40;;;-0.10;99.90;;;;;;4974499;28;20550;-49
2022/03/12 02:39:16;;;;;;;22.20;13.37;;;-0.10;99.90;;;;;;4970927;28;20847;-49
2022/03/12 02:41:44;;;;;;;21.33;13.30;;;0.00;99.90;;;;;;4972922;28;21023;-49
2022/03/12 02:44:18;;;;;;;19.17;13.00;;;0.00;99.90;;;;;;4970581;28;20525;-49
2022/03/12 02:47:10;;;;;;;16.80;12.50;;;0.00;99.90;;;;;;4974248;28;20496;-49
2022/03/12 02:49:39;;;;;;;24.20;13.00;;;-0.10;99.90;;;;;;4974987;28;20468;-50
2022/03/12 02:52:06;;;;;;;20.17;12.20;;;0.00;99.90;;;;;;4972357;28;21062;-49
2022/03/12 02:54:34;;;;;;;24.20;11.93;;;0.00;99.90;;;;;;4976800;28;20517;-49
2022/03/12 02:57:03;;;;;;;24.40;14.53;;;0.00;99.90;;;;;;4971573;28;20843;-49
2022/03/12 02:59:30;;;;;;;24.73;14.13;;;0.00;99.90;;;;;;4973270;28;20461;-49
2022/03/12 03:01:57;;;;;;;21.07;13.63;;;-0.10;99.90;;;;;;4973011;28;20981;-50
2022/03/12 03:04:24;;;;;;;24.03;12.57;;;-0.10;99.90;;;;;;4979636;28;20489;-49
2022/03/12 03:06:51;;;;;;;30.60;16.10;;;-0.10;99.90;;;;;;4971482;28;20476;-49
2022/03/12 03:09:18;;;;;;;19.73;12.90;;;-0.10;99.90;;;;;;4973750;28;20485;-49
2022/03/12 03:11:44;;;;;;;23.43;13.60;;;-0.10;99.90;;;;;;4974547;28;20509;-50
2022/03/12 03:14:12;;;;;;;23.27;14.10;;;-0.10;99.90;;;;;;4971993;28;20513;-54
2022/03/12 03:16:39;;;;;;;21.80;13.37;;;-0.10;99.90;;;;;;4973103;28;20528;-54
2022/03/12 03:19:06;;;;;;;21.10;13.40;;;-0.20;99.90;;;;;;4973251;28;20449;-53
2022/03/12 03:21:34;;;;;;;20.70;13.60;;;-0.20;99.90;;;;;;4972240;28;20520;-54
2022/03/12 03:24:01;;;;;;;20.67;12.93;;;-0.20;99.90;;;;;;4975339;28;20557;-54
2022/03/12 03:26:50;;;;;;;25.17;12.80;;;-0.20;99.90;;;;;;4976184;28;20474;-53
2022/03/12 03:29:20;;;;;;;22.53;13.10;;;-0.20;99.90;;;;;;4974122;28;20891;-54
2022/03/12 03:31:47;;;;;;;21.13;13.60;;;-0.10;99.90;;;;;;4972303;28;20481;-53
2022/03/12 03:34:14;;;;;;;18.93;13.13;;;-0.20;99.90;;;;;;4972669;28;20521;-54
2022/03/12 03:36:40;;;;;;;20.03;12.97;;;-0.20;99.90;;;;;;4973502;28;20504;-54
2022/03/12 03:39:08;;;;;;;21.23;12.67;;;-0.20;99.90;;;;;;4977180;28;20464;-54
2022/03/12 03:41:34;;;;;;;22.63;13.03;;;-0.20;99.90;;;;;;4964496;28;20493;-54
2022/03/12 03:44:01;;;;;;;20.37;13.17;;;-0.20;99.90;;;;;;4973541;28;20527;-54
2022/03/12 03:46:29;;;;;;;22.53;13.93;;;-0.20;99.90;;;;;;4972597;28;20897;-53
2022/03/12 03:48:56;;;;;;;26.93;13.70;;;-0.30;99.90;;;;;;4974343;28;20501;-52
2022/03/12 03:51:23;;;;;;;20.00;13.77;;;-0.30;99.90;;;;;;4967499;28;20485;-53
2022/03/12 03:53:50;;;;;;;21.77;13.17;;;-0.30;99.90;;;;;;4970278;28;20513;-53
2022/03/12 03:56:18;;;;;;;27.33;12.90;;;-0.30;99.90;;;;;;4971392;28;20485;-53
2022/03/12 03:58:45;;;;;;;26.33;13.47;;;-0.30;99.90;;;;;;4980881;28;20467;-53
2022/03/12 04:01:16;;;;;;;22.93;13.93;;;-0.30;99.90;;;;;;4979966;28;20904;-53
2022/03/12 04:03:48;;;;;;;24.67;14.47;;;-0.40;99.90;;;;;;4975073;28;20481;-53
2022/03/12 04:06:15;;;;;;;25.10;14.63;;;-0.40;99.90;;;;;;4971977;28;20465;-54
2022/03/12 04:08:42;;;;;;;21.20;13.77;;;-0.40;99.90;;;;;;4977301;28;20473;-54
2022/03/12 04:11:15;;;;;;;23.80;15.23;;;-0.40;99.90;;;;;;4974238;28;20485;-53
2022/03/12 04:13:42;;;;;;;24.93;14.67;;;-0.50;99.90;;;;;;4981098;28;20493;-54
2022/03/12 04:16:09;;;;;;;21.93;14.00;;;-0.50;99.90;;;;;;4970676;28;20987;-53
2022/03/12 04:18:36;;;;;;;21.53;13.53;;;-0.50;99.90;;;;;;4978517;28;20520;-54
2022/03/12 04:21:04;;;;;;;25.67;14.00;;;-0.50;99.90;;;;;;4976392;28;20493;-53
2022/03/12 04:23:31;;;;;;;29.10;14.07;;;-0.50;99.90;;;;;;4979209;28;20516;-53
2022/03/12 04:25:59;;;;;;;22.50;13.10;;;-0.50;99.90;;;;;;4974938;28;20462;-53
2022/03/12 04:28:32;;;;;;;24.67;15.50;;;-0.50;99.90;;;;;;4972505;28;21561;-53
2022/03/12 04:30:59;;;;;;;23.33;14.97;;;-0.60;99.90;;;;;;4972210;28;20461;-53
2022/03/12 04:33:26;;;;;;;22.17;14.33;;;-0.60;99.90;;;;;;4971770;28;20980;-53
2022/03/12 04:35:52;;;;;;;19.93;13.40;;;-0.60;99.90;;;;;;4970537;28;20945;-53
2022/03/12 04:38:20;;;;;;;22.97;13.53;;;-0.60;99.90;;;;;;4971697;28;20497;-53
2022/03/12 04:40:47;;;;;;;20.23;13.20;;;-0.60;99.90;;;;;;4973248;28;20500;-53
2022/03/12 04:43:15;;;;;;;23.57;13.40;;;-0.70;99.90;;;;;;4966879;28;20489;-53
2022/03/12 04:45:44;;;;;;;21.67;13.83;;;-0.70;99.90;;;;;;4970982;28;20528;-53
2022/03/12 04:48:13;;;;;;;19.57;12.50;;;-0.80;99.90;;;;;;4972302;28;20469;-53
2022/03/12 04:50:40;;;;;;;24.57;14.53;;;-0.70;99.90;;;;;;4975122;28;20488;-52
2022/03/12 04:53:08;;;;;;;34.73;21.60;;;-0.70;99.90;;;;;;4972699;28;21010;-54
2022/03/12 04:55:36;;;;;;;26.10;15.40;;;-0.80;99.90;;;;;;4971155;28;20472;-53
2022/03/12 04:58:03;;;;;;;23.80;14.53;;;-0.80;99.90;;;;;;4973172;28;20832;-53
2022/03/12 05:00:31;;;;;;;31.13;14.43;;;-0.90;99.90;;;;;;4974934;28;20471;-53
2022/03/12 05:03:07;;;;;;;21.47;13.70;;;-0.80;99.90;;;;;;4973826;28;20476;-53
2022/03/12 05:05:34;;;;;;;27.10;14.43;;;-0.80;99.90;;;;;;4971907;28;20550;-53
2022/03/12 05:08:00;;;;;;;28.10;15.40;;;-0.80;99.90;;;;;;4976981;28;20985;-53
2022/03/12 05:10:29;;;;;;;24.97;15.23;;;-0.80;99.90;;;;;;4975486;28;20493;-53
2022/03/12 05:12:58;;;;;;;25.80;14.30;;;-0.80;99.90;;;;;;4977698;28;20493;-53
2022/03/12 05:15:25;;;;;;;24.17;13.97;;;-0.80;99.90;;;;;;4976875;28;20489;-54
2022/03/12 05:17:51;;;;;;;25.77;14.30;;;-0.80;99.90;;;;;;4973876;28;20473;-53
2022/03/12 05:20:21;;;;;;;24.00;14.57;;;-0.80;99.90;;;;;;4973980;28;20899;-53
2022/03/12 05:22:48;;;;;;;23.27;14.70;;;-0.80;99.90;;;;;;4972151;28;20485;-53
2022/03/12 05:25:15;;;;;;;21.53;13.60;;;-0.90;99.90;;;;;;4977362;28;20547;-53
2022/03/12 05:27:42;;;;;;;20.23;13.53;;;-0.80;99.90;;;;;;4988347;28;20958;-53
2022/03/12 05:30:11;;;;;;;35.03;15.00;;;-0.80;99.90;;;;;;4983522;28;20551;-53
2022/03/12 05:32:38;;;;;;;20.63;13.83;;;-0.90;99.90;;;;;;4982362;28;20858;-53
2022/03/12 05:35:06;;;;;;;22.13;14.50;;;-0.90;99.90;;;;;;4982533;28;20507;-53
2022/03/12 05:37:33;;;;;;;22.30;14.80;;;-0.90;99.90;;;;;;4974844;28;20501;-52
2022/03/12 05:39:59;;;;;;;24.77;14.20;;;-0.90;99.90;;;;;;4971518;28;20492;-53
2022/03/12 05:42:26;;;;;;;21.43;14.27;;;-0.90;99.90;;;;;;4976547;28;20477;-53
2022/03/12 05:44:56;;;;;;;28.97;14.90;;;-0.90;99.90;;;;;;4995266;23;20504;-52
2022/03/12 05:47:25;;;;;;;22.70;13.63;;;-0.90;99.90;;;;;;4989724;28;20467;-53
2022/03/12 05:49:52;;;;;;;21.13;13.23;;;-0.90;99.90;;;;;;4989060;28;20456;-53
2022/03/12 05:52:18;;;;;;;26.20;13.52;;;-0.90;99.90;;;;;;4993931;28;20483;-52
2022/03/12 05:54:48;;;;;;;23.23;14.03;;;-1.00;99.90;;;;;;4994406;28;20283;-52
2022/03/12 05:57:14;;;;;;;25.50;13.60;;;-0.90;99.90;;;;;;4983771;28;20472;-52
2022/03/12 05:59:41;;;;;;;23.53;14.17;;;-0.80;99.90;;;;;;4977516;28;21054;-52
2022/03/12 06:02:08;;;;;;;34.13;13.63;;;-0.70;99.90;;;;;;4974331;28;20489;-52
2022/03/12 06:04:36;;;;;;;27.20;15.33;;;-0.70;99.90;;;;;;4966889;28;20501;-52
2022/03/12 06:07:03;;;;;;;21.50;13.43;;;-0.70;99.90;;;;;;4989441;28;20560;-53
2022/03/12 06:09:29;;;;;;;20.47;13.97;;;-0.60;99.90;;;;;;4975920;28;21243;-53
2022/03/12 06:11:58;;;;;;;23.53;14.77;;;-0.60;99.90;;;;;;4963686;28;20512;-54
2022/03/12 06:14:25;;;;;;;29.30;14.90;;;-0.50;99.90;;;;;;4981707;28;20484;-52
2022/03/12 06:16:51;;;;;;;26.37;15.10;;;-0.50;99.90;;;;;;4991911;28;20897;-51
2022/03/12 06:19:20;;;;;;;21.30;13.63;;;-0.50;99.90;;;;;;4980174;28;20522;-53
2022/03/12 06:21:48;;;;;;;24.70;15.60;;;-0.50;99.90;;;;;;4973355;28;20472;-51
2022/03/12 06:24:15;;;;;;;24.97;14.87;;;-0.50;99.90;;;;;;4971028;28;20513;-52
2022/03/12 06:26:43;;;;;;;21.03;14.20;;;-0.40;99.90;;;;;;4974199;28;20524;-51
2022/03/12 06:29:12;;;;;;;26.03;15.73;;;-0.40;99.90;;;;;;4975048;28;20553;-51
2022/03/12 06:31:38;;;;;;;22.20;13.93;;;-0.30;99.90;;;;;;4980333;28;20476;-53
2022/03/12 06:34:05;;;;;;;29.33;14.77;;;-0.20;99.90;;;;;;4972360;28;20509;-52
2022/03/12 06:36:32;;;;;;;20.70;13.60;;;-0.20;99.90;;;;;;4981688;28;20445;-53
2022/03/12 06:39:01;;;;;;;21.67;14.10;;;-0.10;99.90;;;;;;4973174;28;20475;-54
2022/03/12 06:41:28;;;;;;;21.80;14.30;;;-0.10;99.90;;;;;;4980476;28;20465;-51
2022/03/12 06:43:55;;;;;;;24.57;15.63;;;0.10;99.90;;;;;;4974389;28;20461;-52
2022/03/12 06:46:22;;;;;;;25.10;15.03;;;0.20;99.90;;;;;;4978491;28;20847;-53
2022/03/12 06:48:48;;;;;;;157.23;124.03;;;0.30;99.90;;;;;;4973332;28;20476;-51
2022/03/12 06:51:16;;;;;;;26.23;15.73;;;0.40;99.90;;;;;;4968151;28;20470;-52
2022/03/12 06:53:42;;;;;;;22.57;15.50;;;0.40;99.90;;;;;;4980490;28;20504;-52
2022/03/12 06:56:10;;;;;;;25.63;15.47;;;0.40;99.90;;;;;;4968737;28;20494;-53
2022/03/12 06:58:37;;;;;;;25.83;15.50;;;0.60;99.90;;;;;;4973254;28;20992;-51
2022/03/12 07:01:04;;;;;;;21.90;13.33;;;0.60;99.90;;;;;;4984189;28;20465;-53
2022/03/12 07:03:31;;;;;;;30.97;15.00;;;0.70;99.90;;;;;;4990721;28;20500;-52
2022/03/12 07:05:57;;;;;;;26.37;14.33;;;0.80;99.90;;;;;;4990468;28;20488;-52
2022/03/12 07:08:24;;;;;;;27.40;15.50;;;0.90;99.90;;;;;;4976474;28;20475;-53
2022/03/12 07:10:51;;;;;;;21.73;13.90;;;1.00;99.90;;;;;;4970283;28;20497;-52
2022/03/12 07:13:19;;;;;;;23.93;14.20;;;1.10;99.90;;;;;;4955461;28;20585;-53
2022/03/12 07:15:45;;;;;;;22.40;14.40;;;1.20;99.90;;;;;;4965452;28;20508;-52
2022/03/12 07:18:12;;;;;;;27.70;14.93;;;1.30;99.90;;;;;;4989472;28;20915;-53
2022/03/12 07:20:39;;;;;;;31.30;15.90;;;1.30;99.90;;;;;;4983534;28;20501;-52
2022/03/12 07:23:06;;;;;;;24.43;14.77;;;1.50;99.90;;;;;;4973237;28;20481;-54
2022/03/12 07:25:33;;;;;;;21.20;14.20;;;1.60;99.90;;;;;;4962532;28;20545;-50
2022/03/12 07:28:00;;;;;;;24.43;14.70;;;1.80;99.90;;;;;;4968826;28;20523;-50
2022/03/12 07:30:28;;;;;;;28.67;16.37;;;2.10;99.90;;;;;;4975255;28;20470;-50
2022/03/12 07:32:54;;;;;;;22.30;14.70;;;2.30;99.90;;;;;;4989771;28;20524;-50
2022/03/12 07:35:21;;;;;;;22.60;14.30;;;2.40;99.90;;;;;;4970319;28;20520;-50
2022/03/12 07:37:49;;;;;;;24.60;14.30;;;2.30;99.90;;;;;;4967578;28;20461;-50
2022/03/12 07:40:17;;;;;;;23.23;14.30;;;2.50;99.90;;;;;;4970026;28;20472;-49
2022/03/12 07:42:45;;;;;;;22.40;14.53;;;2.70;99.90;;;;;;4974182;28;21021;-50
2022/03/12 07:45:12;;;;;;;26.03;14.70;;;2.80;99.90;;;;;;4971320;28;20625;-50
2022/03/12 07:47:40;;;;;;;24.70;14.30;;;2.80;99.90;;;;;;4970398;28;21064;-50
2022/03/12 07:50:09;;;;;;;22.40;14.03;;;2.70;99.90;;;;;;4962900;28;20505;-50
2022/03/12 07:52:37;;;;;;;22.00;13.80;;;2.90;99.90;;;;;;4974571;28;20485;-51
2022/03/12 07:55:05;;;;;;;25.13;14.47;;;2.80;99.90;;;;;;4986756;28;20519;-50
2022/03/12 07:57:31;;;;;;;23.60;15.30;;;3.10;99.90;;;;;;4978380;28;20992;-50
2022/03/12 07:59:58;;;;;;;21.70;15.07;;;3.30;99.90;;;;;;4974710;28;21058;-50
2022/03/12 08:02:25;;;;;;;30.20;14.47;;;3.30;99.90;;;;;;4967737;28;20987;-50
2022/03/12 08:04:53;;;;;;;18.67;13.63;;;3.40;99.90;;;;;;4968161;28;20563;-51
2022/03/12 08:07:20;;;;;;;23.40;13.60;;;3.20;99.90;;;;;;4965667;28;20500;-50
2022/03/12 08:09:46;;;;;;;21.40;13.53;;;3.50;99.90;;;;;;4966937;28;20520;-49
2022/03/12 08:12:15;;;;;;;22.47;13.13;;;3.80;99.90;;;;;;4966998;28;20497;-50
2022/03/12 08:14:44;;;;;;;25.30;13.90;;;4.50;99.90;;;;;;4970121;28;20493;-50
2022/03/12 08:17:11;;;;;;;20.53;13.63;;;5.60;99.90;;;;;;4968197;28;20461;-50
2022/03/12 08:19:38;;;;;;;20.97;12.80;;;5.40;99.90;;;;;;4966729;28;20469;-51
2022/03/12 08:22:07;;;;;;;26.57;13.97;;;5.60;99.90;;;;;;4970744;28;20461;-51
2022/03/12 08:24:34;;;;;;;20.63;12.67;;;5.60;99.90;;;;;;4968858;28;20483;-50
2022/03/12 08:27:00;;;;;;;20.40;13.60;;;6.10;99.90;;;;;;4966042;28;20493;-50
2022/03/12 08:29:27;;;;;;;20.33;12.87;;;6.20;99.90;;;;;;4971338;28;20497;-51
2022/03/12 08:31:55;;;;;;;21.83;11.93;;;6.20;99.90;;;;;;4973238;28;20473;-51
2022/03/12 08:34:21;;;;;;;20.60;13.73;;;6.50;99.90;;;;;;4965016;28;20490;-51
2022/03/12 08:36:48;;;;;;;19.83;12.03;;;6.90;99.90;;;;;;4956160;28;21125;-51
2022/03/12 08:39:16;;;;;;;18.30;12.00;;;6.30;99.90;;;;;;4958518;28;20508;-50
2022/03/12 08:41:43;;;;;;;19.47;10.73;;;6.80;99.90;;;;;;4961000;28;20548;-51
2022/03/12 08:44:11;;;;;;;21.93;12.30;;;7.10;99.90;;;;;;4960781;28;20592;-51
2022/03/12 08:46:42;;;;;;;17.03;11.93;;;7.30;99.90;;;;;;4957327;28;20489;-51
2022/03/12 08:49:08;;;;;;;18.73;11.80;;;7.60;99.90;;;;;;4968738;28;20469;-56
2022/03/12 08:51:35;;;;;;;17.00;12.00;;;7.50;99.90;;;;;;4965954;28;20966;-51
2022/03/12 08:54:02;;;;;;;18.80;12.27;;;7.40;99.90;;;;;;4967086;28;20489;-51
2022/03/12 08:56:30;;;;;;;24.33;12.43;;;7.40;99.90;;;;;;4964409;28;20477;-51
2022/03/12 08:58:57;;;;;;;20.83;13.03;;;8.40;99.90;;;;;;4969765;28;20501;-52
2022/03/12 09:01:25;;;;;;;20.60;11.17;;;8.50;99.90;;;;;;4957160;28;20545;-52
2022/03/12 09:03:52;;;;;;;13.83;10.30;;;8.80;99.90;;;;;;4962622;28;20454;-51
2022/03/12 09:06:19;;;;;;;16.77;10.43;;;9.00;99.90;;;;;;4955519;28;20568;-51
2022/03/12 09:08:45;;;;;;;16.03;10.07;;;10.20;99.90;;;;;;4954621;28;21128;-51
2022/03/12 09:11:15;;;;;;;14.00;9.50;;;10.60;99.90;;;;;;4959556;28;20493;-52
2022/03/12 09:13:44;;;;;;;14.90;10.40;;;10.10;99.90;;;;;;4956379;28;20508;-51
2022/03/12 09:16:10;;;;;;;15.60;8.90;;;10.20;99.90;;;;;;4955866;28;20528;-51
2022/03/12 09:18:37;;;;;;;15.97;11.50;;;10.00;99.90;;;;;;4962540;28;20485;-51
2022/03/12 09:21:04;;;;;;;16.00;10.50;;;10.70;99.90;;;;;;4959814;28;20469;-51
2022/03/12 09:23:30;;;;;;;16.37;9.30;;;11.40;99.90;;;;;;4961425;28;20492;-51
2022/03/12 09:25:57;;;;;;;16.50;9.80;;;10.10;99.90;;;;;;4952840;28;21277;-52
2022/03/12 09:28:24;;;;;;;15.03;9.37;;;10.80;99.90;;;;;;4954918;28;20557;-52
2022/03/12 09:30:52;;;;;;;16.30;10.20;;;10.60;99.90;;;;;;4965773;28;20464;-50
2022/03/12 09:33:20;;;;;;;14.83;9.77;;;8.80;99.90;;;;;;4968493;28;20482;-51
2022/03/12 09:35:47;;;;;;;17.53;9.30;;;9.70;99.90;;;;;;4966570;28;20998;-51
2022/03/12 09:38:14;;;;;;;15.13;9.40;;;10.50;99.90;;;;;;4966452;28;20562;-51
2022/03/12 09:40:42;;;;;;;17.43;10.23;;;10.40;99.90;;;;;;4960760;28;20469;-52
2022/03/12 09:43:09;;;;;;;10.87;8.40;;;11.20;99.90;;;;;;4965716;28;20880;-52
2022/03/12 09:45:35;;;;;;;12.70;8.80;;;10.70;99.90;;;;;;4959166;28;20492;-51
2022/03/12 09:48:04;;;;;;;20.20;9.97;;;10.70;99.90;;;;;;4964038;28;20497;-51
2022/03/12 09:50:31;;;;;;;10.87;7.80;;;11.20;99.90;;;;;;4963711;28;20471;-51
2022/03/12 09:52:58;;;;;;;12.53;8.63;;;11.40;99.90;;;;;;4965784;28;20488;-51
2022/03/12 09:55:24;;;;;;;14.27;8.80;;;12.30;99.90;;;;;;4967335;28;20584;-51
2022/03/12 09:57:51;;;;;;;13.50;9.03;;;12.20;99.90;;;;;;4967702;28;20488;-51
2022/03/12 10:00:19;;;;;;;13.80;9.40;;;11.60;99.90;;;;;;4969931;28;20501;-50
2022/03/12 10:02:46;;;;;;;12.73;9.33;;;11.10;99.90;;;;;;4964403;28;20467;-51
2022/03/12 10:05:14;;;;;;;11.53;8.37;;;11.10;99.90;;;;;;4971002;28;20917;-51
2022/03/12 10:07:42;;;;;;;9.60;8.10;;;10.40;99.90;;;;;;4972199;28;20524;-51
2022/03/12 10:10:12;;;;;;;19.80;9.50;;;11.20;99.90;;;;;;4967585;28;20501;-52
2022/03/12 10:12:39;;;;;;;11.30;7.80;;;10.30;99.90;;;;;;4973933;28;20519;-51
2022/03/12 10:15:07;;;;;;;11.60;7.77;;;10.10;99.90;;;;;;4972252;28;20548;-51
2022/03/12 10:17:33;;;;;;;10.40;7.50;;;9.80;99.90;;;;;;4967625;28;20553;-51
2022/03/12 10:20:00;;;;;;;14.70;9.10;;;10.10;99.90;;;;;;4972065;28;20473;-51
2022/03/12 10:22:28;;;;;;;11.10;7.43;;;10.70;99.90;;;;;;4976685;28;20481;-51
2022/03/12 10:24:54;;;;;;;12.63;8.70;;;11.10;99.90;;;;;;4982574;28;20516;-52
2022/03/12 10:27:21;;;;;;;16.53;7.63;;;11.20;99.90;;;;;;4970966;28;20468;-52
2022/03/12 10:29:48;;;;;;;20.63;8.37;;;11.60;99.90;;;;;;4976442;28;20493;-51
2022/03/12 10:32:22;;;;;;;11.77;7.80;;;11.50;99.90;;;;;;4962783;28;20508;-51
2022/03/12 10:34:52;;;;;;;15.83;8.13;;;12.70;99.90;;;;;;4963592;28;20485;-52
2022/03/12 10:37:21;;;;;;;11.17;8.30;;;13.40;99.90;;;;;;4965455;28;20471;-51
2022/03/12 10:40:03;;;;;;;18.00;7.23;;;10.20;99.90;;;;;;4964379;28;20910;-51
2022/03/12 10:42:30;;;;;;;10.20;8.50;;;12.10;99.90;;;;;;4968264;28;20458;-52
2022/03/12 10:45:06;;;;;;;9.83;7.30;;;11.30;99.90;;;;;;4967418;28;20482;-52
2022/03/12 10:47:38;;;;;;;11.40;7.73;;;11.30;99.90;;;;;;4968372;28;20937;-51
2022/03/12 10:50:08;;;;;;;11.33;7.60;;;12.20;99.90;;;;;;4965948;28;20882;-51
2022/03/12 10:52:37;;;;;;;8.93;7.33;;;13.30;99.90;;;;;;4970732;28;20971;-51
2022/03/12 10:55:13;;;;;;;12.43;7.03;;;12.10;99.90;;;;;;4970600;28;20489;-51
2022/03/12 10:57:39;;;;;;;10.73;7.30;;;10.80;99.90;;;;;;4971588;28;20465;-52
2022/03/12 11:00:10;;;;;;;10.70;7.60;;;10.90;99.90;;;;;;4971863;28;20534;-52
2022/03/12 11:02:37;;;;;;;12.80;7.60;;;10.60;99.90;;;;;;4969150;28;20493;-52
2022/03/12 11:05:04;;;;;;;9.80;7.50;;;10.40;99.90;;;;;;4968905;28;20822;-51
2022/03/12 11:07:31;;;;;;;12.93;8.37;;;10.50;99.90;;;;;;4970639;28;20450;-51
2022/03/12 11:09:58;;;;;;;8.23;6.90;;;10.90;99.90;;;;;;4973533;28;20450;-51
2022/03/12 11:12:29;;;;;;;15.50;8.73;;;10.20;99.90;;;;;;4971125;28;20502;-53
2022/03/12 11:15:05;;;;;;;28.43;7.77;;;10.40;99.90;;;;;;4965118;28;20484;-51
2022/03/12 11:17:42;;;;;;;9.07;6.90;;;10.70;99.90;;;;;;4976015;28;21033;-51
2022/03/12 11:20:19;;;;;;;15.10;7.27;;;11.50;99.90;;;;;;4963530;28;20553;-51
2022/03/12 11:22:49;;;;;;;8.37;6.83;;;12.70;99.90;;;;;;4971759;28;20589;-50
2022/03/12 11:25:21;;;;;;;9.50;8.07;;;11.60;99.90;;;;;;4967760;28;20478;-50
2022/03/12 11:27:50;;;;;;;10.83;7.50;;;11.20;99.90;;;;;;4969018;28;20836;-50
2022/03/12 11:30:21;;;;;;;10.20;7.60;;;11.40;99.90;;;;;;4971105;28;21050;-50
2022/03/12 11:33:03;;;;;;;16.10;8.40;;;10.80;99.90;;;;;;4970865;28;20485;-50
2022/03/12 11:35:35;;;;;;;16.03;8.80;;;10.50;99.90;;;;;;4972122;28;20528;-50
2022/03/12 11:38:11;;;;;;;11.10;7.47;;;11.00;99.90;;;;;;4967681;28;20496;-50
2022/03/12 11:40:42;;;;;;;15.90;6.67;;;11.50;99.90;;;;;;4971895;28;21021;-51
2022/03/12 11:43:23;;;;;;;10.30;6.83;;;11.70;99.90;;;;;;4970743;28;20493;-50
2022/03/12 11:45:49;;;;;;;10.43;7.97;;;11.80;99.90;;;;;;4987494;23;20496;-48
2022/03/12 11:48:17;;;;;;;10.57;7.70;;;11.40;99.90;;;;;;4985105;28;20889;-48
2022/03/12 11:50:43;;;;;;;10.43;7.40;;;10.80;99.90;;;;;;4986681;28;20531;-48
2022/03/12 11:53:15;;;;;;;7.27;6.53;;;11.00;99.90;;;;;;4988114;28;20847;-48
2022/03/12 11:55:42;;;;;;;11.60;7.97;;;10.70;99.90;;;;;;4976547;28;20477;-48
2022/03/12 11:58:08;;;;;;;12.10;7.37;;;10.70;99.90;;;;;;4966293;28;21033;-49
2022/03/12 12:00:36;;;;;;;9.63;7.47;;;10.90;99.90;;;;;;4965680;28;20457;-48
2022/03/12 12:03:03;;;;;;;7.10;6.43;;;10.60;99.90;;;;;;4971180;28;20481;-48
2022/03/12 12:05:30;;;;;;;12.23;7.60;;;10.70;99.90;;;;;;4973216;28;20505;-48
2022/03/12 12:07:58;;;;;;;12.00;6.43;;;10.50;99.90;;;;;;4971255;28;20465;-48
2022/03/12 12:10:27;;;;;;;10.20;7.60;;;10.50;99.90;;;;;;4974330;28;20552;-48
2022/03/12 12:12:54;;;;;;;8.40;6.20;;;10.90;99.90;;;;;;4972467;28;20553;-48
2022/03/12 12:15:25;;;;;;;10.13;6.70;;;10.50;99.90;;;;;;4972535;28;20524;-49
2022/03/12 12:17:54;;;;;;;8.30;6.00;;;10.70;99.90;;;;;;4975485;28;21050;-49
2022/03/12 12:20:21;;;;;;;7.87;6.47;;;10.80;99.90;;;;;;4985075;28;20423;-49
2022/03/12 12:22:51;;;;;;;9.93;6.30;;;10.80;99.90;;;;;;4981547;28;20524;-48
2022/03/12 12:25:19;;;;;;;7.53;6.17;;;11.10;99.90;;;;;;4984338;28;20560;-49
2022/03/12 12:27:49;;;;;;;9.40;6.03;;;11.00;99.90;;;;;;4975657;28;20461;-47
2022/03/12 12:30:28;;;;;;;7.60;6.37;;;11.10;99.90;;;;;;4978115;28;20457;-49
2022/03/12 12:33:01;;;;;;;9.50;6.53;;;11.00;99.90;;;;;;4970924;28;20449;-55
2022/03/12 12:35:31;;;;;;;12.13;6.97;;;11.10;99.90;;;;;;4972829;28;20493;-49
2022/03/12 12:38:01;;;;;;;7.83;6.37;;;11.30;99.90;;;;;;4966539;28;20489;-49